sensor_id;sensor_type;location;lat;lon;timestamp;P1;durP1;ratioP1;P2;durP2;ratioP2
11334;SDS011;5722;42.620;23.374;2023-05-14T00:01:47;3.83;;;3.03;;
11334;SDS011;5722;42.620;23.374;2023-05-14T00:04:21;5.00;;;3.30;;
11334;SDS011;5722;42.620;23.374;2023-05-14T00:06:50;4.03;;;3.50;;
11334;SDS011;5722;42.620;23.374;2023-05-14T00:09:18;5.20;;;3.60;;
11334;SDS011;5722;42.620;23.374;2023-05-14T00:11:51;3.77;;;3.43;;
11334;SDS011;5722;42.620;23.374;2023-05-14T00:14:21;6.20;;;3.37;;
11334;SDS011;5722;42.620;23.374;2023-05-14T00:16:54;5.43;;;3.47;;
11334;SDS011;5722;42.620;23.374;2023-05-14T00:19:24;4.63;;;3.30;;
11334;SDS011;5722;42.620;23.374;2023-05-14T00:21:54;3.73;;;3.40;;
11334;SDS011;5722;42.620;23.374;2023-05-14T00:24:23;5.67;;;3.23;;
11334;SDS011;5722;42.620;23.374;2023-05-14T00:26:53;4.60;;;3.60;;
11334;SDS011;5722;42.620;23.374;2023-05-14T00:29:22;4.07;;;3.33;;
11334;SDS011;5722;42.620;23.374;2023-05-14T00:31:52;7.10;;;3.60;;
11334;SDS011;5722;42.620;23.374;2023-05-14T00:34:24;4.70;;;3.53;;
11334;SDS011;5722;42.620;23.374;2023-05-14T00:36:50;3.50;;;3.20;;
11334;SDS011;5722;42.620;23.374;2023-05-14T00:39:18;4.47;;;3.27;;
11334;SDS011;5722;42.620;23.374;2023-05-14T00:41:45;4.27;;;3.50;;
11334;SDS011;5722;42.620;23.374;2023-05-14T00:47:03;4.93;;;3.67;;
11334;SDS011;5722;42.620;23.374;2023-05-14T00:49:30;4.80;;;3.60;;
11334;SDS011;5722;42.620;23.374;2023-05-14T00:51:58;8.00;;;3.40;;
11334;SDS011;5722;42.620;23.374;2023-05-14T00:54:25;7.23;;;3.73;;
11334;SDS011;5722;42.620;23.374;2023-05-14T00:56:53;4.70;;;3.60;;
11334;SDS011;5722;42.620;23.374;2023-05-14T00:59:24;4.60;;;3.20;;
11334;SDS011;5722;42.620;23.374;2023-05-14T01:01:54;3.40;;;3.10;;
11334;SDS011;5722;42.620;23.374;2023-05-14T01:04:27;3.67;;;3.23;;
11334;SDS011;5722;42.620;23.374;2023-05-14T01:07:02;4.93;;;3.30;;
11334;SDS011;5722;42.620;23.374;2023-05-14T01:09:35;4.03;;;3.30;;
11334;SDS011;5722;42.620;23.374;2023-05-14T01:12:07;4.93;;;2.97;;
11334;SDS011;5722;42.620;23.374;2023-05-14T01:14:40;3.80;;;3.23;;
11334;SDS011;5722;42.620;23.374;2023-05-14T01:17:11;4.03;;;3.10;;
11334;SDS011;5722;42.620;23.374;2023-05-14T01:19:44;5.80;;;3.00;;
11334;SDS011;5722;42.620;23.374;2023-05-14T01:22:14;3.73;;;2.90;;
11334;SDS011;5722;42.620;23.374;2023-05-14T01:24:42;4.07;;;2.83;;
11334;SDS011;5722;42.620;23.374;2023-05-14T01:27:09;3.07;;;2.70;;
11334;SDS011;5722;42.620;23.374;2023-05-14T01:29:39;4.03;;;2.80;;
11334;SDS011;5722;42.620;23.374;2023-05-14T01:32:11;4.57;;;3.03;;
11334;SDS011;5722;42.620;23.374;2023-05-14T01:34:44;4.30;;;2.93;;
11334;SDS011;5722;42.620;23.374;2023-05-14T01:37:14;3.13;;;2.70;;
11334;SDS011;5722;42.620;23.374;2023-05-14T01:39:42;3.07;;;2.80;;
11334;SDS011;5722;42.620;23.374;2023-05-14T01:42:10;3.37;;;3.03;;
11334;SDS011;5722;42.620;23.374;2023-05-14T01:44:40;3.73;;;2.90;;
11334;SDS011;5722;42.620;23.374;2023-05-14T01:47:07;4.47;;;2.60;;
11334;SDS011;5722;42.620;23.374;2023-05-14T01:49:36;3.27;;;2.93;;
11334;SDS011;5722;42.620;23.374;2023-05-14T01:52:07;6.07;;;3.20;;
11334;SDS011;5722;42.620;23.374;2023-05-14T01:54:35;3.33;;;2.83;;
11334;SDS011;5722;42.620;23.374;2023-05-14T01:57:02;3.77;;;2.67;;
11334;SDS011;5722;42.620;23.374;2023-05-14T01:59:30;3.47;;;3.10;;
11334;SDS011;5722;42.620;23.374;2023-05-14T02:02:00;4.33;;;3.03;;
11334;SDS011;5722;42.620;23.374;2023-05-14T02:04:27;5.13;;;3.10;;
11334;SDS011;5722;42.620;23.374;2023-05-14T02:06:55;6.70;;;3.90;;
11334;SDS011;5722;42.620;23.374;2023-05-14T02:09:25;4.90;;;3.53;;
11334;SDS011;5722;42.620;23.374;2023-05-14T02:11:54;5.67;;;4.00;;
11334;SDS011;5722;42.620;23.374;2023-05-14T02:14:25;4.70;;;3.50;;
11334;SDS011;5722;42.620;23.374;2023-05-14T02:16:53;4.93;;;3.40;;
11334;SDS011;5722;42.620;23.374;2023-05-14T02:19:22;6.20;;;3.93;;
11334;SDS011;5722;42.620;23.374;2023-05-14T02:21:50;5.60;;;3.47;;
11334;SDS011;5722;42.620;23.374;2023-05-14T02:24:16;4.03;;;3.50;;
11334;SDS011;5722;42.620;23.374;2023-05-14T02:26:43;3.67;;;3.30;;
11334;SDS011;5722;42.620;23.374;2023-05-14T02:29:13;8.80;;;3.93;;
11334;SDS011;5722;42.620;23.374;2023-05-14T02:31:40;4.83;;;3.83;;
11334;SDS011;5722;42.620;23.374;2023-05-14T02:34:08;5.13;;;3.90;;
11334;SDS011;5722;42.620;23.374;2023-05-14T02:36:35;4.50;;;3.57;;
11334;SDS011;5722;42.620;23.374;2023-05-14T02:39:17;4.87;;;3.60;;
11334;SDS011;5722;42.620;23.374;2023-05-14T02:41:44;6.53;;;4.30;;
11334;SDS011;5722;42.620;23.374;2023-05-14T02:44:14;6.30;;;3.90;;
11334;SDS011;5722;42.620;23.374;2023-05-14T02:46:41;5.80;;;4.00;;
11334;SDS011;5722;42.620;23.374;2023-05-14T02:49:08;8.20;;;4.00;;
11334;SDS011;5722;42.620;23.374;2023-05-14T02:51:35;5.33;;;4.17;;
11334;SDS011;5722;42.620;23.374;2023-05-14T02:54:05;5.17;;;4.17;;
11334;SDS011;5722;42.620;23.374;2023-05-14T02:59:02;7.63;;;4.87;;
11334;SDS011;5722;42.620;23.374;2023-05-14T03:01:31;6.87;;;4.20;;
11334;SDS011;5722;42.620;23.374;2023-05-14T03:03:58;4.90;;;3.63;;
11334;SDS011;5722;42.620;23.374;2023-05-14T03:06:25;3.77;;;3.40;;
11334;SDS011;5722;42.620;23.374;2023-05-14T03:08:52;3.93;;;3.40;;
11334;SDS011;5722;42.620;23.374;2023-05-14T03:11:21;4.37;;;3.97;;
11334;SDS011;5722;42.620;23.374;2023-05-14T03:13:48;7.47;;;3.93;;
11334;SDS011;5722;42.620;23.374;2023-05-14T03:16:15;10.23;;;4.37;;
11334;SDS011;5722;42.620;23.374;2023-05-14T03:18:44;4.13;;;3.50;;
11334;SDS011;5722;42.620;23.374;2023-05-14T03:21:13;3.97;;;3.60;;
11334;SDS011;5722;42.620;23.374;2023-05-14T03:23:53;5.67;;;3.90;;
11334;SDS011;5722;42.620;23.374;2023-05-14T03:26:21;4.93;;;3.70;;
11334;SDS011;5722;42.620;23.374;2023-05-14T03:28:52;4.63;;;4.13;;
11334;SDS011;5722;42.620;23.374;2023-05-14T03:31:23;5.63;;;4.20;;
11334;SDS011;5722;42.620;23.374;2023-05-14T03:33:58;6.27;;;4.60;;
11334;SDS011;5722;42.620;23.374;2023-05-14T03:36:29;6.30;;;4.83;;
11334;SDS011;5722;42.620;23.374;2023-05-14T03:39:01;5.83;;;4.43;;
11334;SDS011;5722;42.620;23.374;2023-05-14T03:41:31;8.63;;;5.37;;
11334;SDS011;5722;42.620;23.374;2023-05-14T03:43:59;7.80;;;4.83;;
11334;SDS011;5722;42.620;23.374;2023-05-14T03:46:30;4.73;;;4.20;;
11334;SDS011;5722;42.620;23.374;2023-05-14T03:51:54;4.57;;;3.67;;
11334;SDS011;5722;42.620;23.374;2023-05-14T03:54:23;3.90;;;3.50;;
11334;SDS011;5722;42.620;23.374;2023-05-14T03:56:53;4.27;;;3.80;;
11334;SDS011;5722;42.620;23.374;2023-05-14T03:59:21;4.87;;;3.80;;
11334;SDS011;5722;42.620;23.374;2023-05-14T04:01:47;4.67;;;3.87;;
11334;SDS011;5722;42.620;23.374;2023-05-14T04:04:26;6.00;;;3.70;;
11334;SDS011;5722;42.620;23.374;2023-05-14T04:06:54;5.20;;;3.90;;
11334;SDS011;5722;42.620;23.374;2023-05-14T04:09:21;5.70;;;4.00;;
11334;SDS011;5722;42.620;23.374;2023-05-14T04:11:50;3.73;;;3.40;;
11334;SDS011;5722;42.620;23.374;2023-05-14T04:14:17;6.27;;;3.67;;
11334;SDS011;5722;42.620;23.374;2023-05-14T04:16:45;6.80;;;4.33;;
11334;SDS011;5722;42.620;23.374;2023-05-14T04:19:15;5.20;;;3.70;;
11334;SDS011;5722;42.620;23.374;2023-05-14T04:21:42;3.73;;;3.43;;
11334;SDS011;5722;42.620;23.374;2023-05-14T04:24:12;4.40;;;3.57;;
11334;SDS011;5722;42.620;23.374;2023-05-14T04:26:44;4.50;;;3.40;;
11334;SDS011;5722;42.620;23.374;2023-05-14T04:29:15;4.80;;;3.23;;
11334;SDS011;5722;42.620;23.374;2023-05-14T04:31:48;5.20;;;3.60;;
11334;SDS011;5722;42.620;23.374;2023-05-14T04:34:16;3.63;;;3.10;;
11334;SDS011;5722;42.620;23.374;2023-05-14T04:36:49;4.87;;;3.47;;
11334;SDS011;5722;42.620;23.374;2023-05-14T04:39:21;3.60;;;3.30;;
11334;SDS011;5722;42.620;23.374;2023-05-14T04:41:53;5.13;;;3.53;;
11334;SDS011;5722;42.620;23.374;2023-05-14T04:44:21;5.43;;;3.50;;
11334;SDS011;5722;42.620;23.374;2023-05-14T04:46:49;5.37;;;3.40;;
11334;SDS011;5722;42.620;23.374;2023-05-14T04:49:25;5.40;;;3.53;;
11334;SDS011;5722;42.620;23.374;2023-05-14T04:51:55;5.80;;;3.90;;
11334;SDS011;5722;42.620;23.374;2023-05-14T04:54:26;4.13;;;3.80;;
11334;SDS011;5722;42.620;23.374;2023-05-14T04:56:53;4.90;;;3.97;;
11334;SDS011;5722;42.620;23.374;2023-05-14T04:59:34;5.00;;;3.70;;
11334;SDS011;5722;42.620;23.374;2023-05-14T05:02:01;6.63;;;4.00;;
11334;SDS011;5722;42.620;23.374;2023-05-14T05:04:34;6.33;;;4.13;;
11334;SDS011;5722;42.620;23.374;2023-05-14T05:07:08;5.20;;;4.03;;
11334;SDS011;5722;42.620;23.374;2023-05-14T05:09:37;5.00;;;4.50;;
11334;SDS011;5722;42.620;23.374;2023-05-14T05:12:07;5.73;;;4.57;;
11334;SDS011;5722;42.620;23.374;2023-05-14T05:14:36;4.80;;;4.37;;
11334;SDS011;5722;42.620;23.374;2023-05-14T05:17:03;6.30;;;4.70;;
11334;SDS011;5722;42.620;23.374;2023-05-14T05:19:37;4.47;;;4.07;;
11334;SDS011;5722;42.620;23.374;2023-05-14T05:22:11;4.37;;;3.87;;
11334;SDS011;5722;42.620;23.374;2023-05-14T05:24:40;5.30;;;4.00;;
11334;SDS011;5722;42.620;23.374;2023-05-14T05:27:10;6.23;;;4.40;;
11334;SDS011;5722;42.620;23.374;2023-05-14T05:29:38;4.27;;;3.87;;
11334;SDS011;5722;42.620;23.374;2023-05-14T05:32:07;4.50;;;4.10;;
11334;SDS011;5722;42.620;23.374;2023-05-14T05:34:34;4.60;;;4.20;;
11334;SDS011;5722;42.620;23.374;2023-05-14T05:37:14;7.50;;;4.57;;
11334;SDS011;5722;42.620;23.374;2023-05-14T05:39:47;6.87;;;4.60;;
11334;SDS011;5722;42.620;23.374;2023-05-14T05:42:14;5.57;;;4.77;;
11334;SDS011;5722;42.620;23.374;2023-05-14T05:44:45;6.13;;;4.80;;
11334;SDS011;5722;42.620;23.374;2023-05-14T05:47:13;7.50;;;4.57;;
11334;SDS011;5722;42.620;23.374;2023-05-14T05:49:44;5.23;;;4.67;;
11334;SDS011;5722;42.620;23.374;2023-05-14T05:52:11;5.03;;;4.40;;
11334;SDS011;5722;42.620;23.374;2023-05-14T05:54:44;5.17;;;4.63;;
11334;SDS011;5722;42.620;23.374;2023-05-14T05:57:15;6.47;;;5.37;;
11334;SDS011;5722;42.620;23.374;2023-05-14T05:59:47;9.93;;;6.10;;
11334;SDS011;5722;42.620;23.374;2023-05-14T06:02:17;6.20;;;5.57;;
11334;SDS011;5722;42.620;23.374;2023-05-14T06:04:48;7.13;;;4.63;;
11334;SDS011;5722;42.620;23.374;2023-05-14T06:07:17;5.47;;;4.90;;
11334;SDS011;5722;42.620;23.374;2023-05-14T06:09:56;5.97;;;5.37;;
11334;SDS011;5722;42.620;23.374;2023-05-14T06:12:28;6.53;;;5.70;;
11334;SDS011;5722;42.620;23.374;2023-05-14T06:14:59;6.57;;;5.60;;
11334;SDS011;5722;42.620;23.374;2023-05-14T06:17:27;7.00;;;5.67;;
11334;SDS011;5722;42.620;23.374;2023-05-14T06:19:57;6.03;;;5.43;;
11334;SDS011;5722;42.620;23.374;2023-05-14T06:22:28;7.47;;;5.67;;
11334;SDS011;5722;42.620;23.374;2023-05-14T06:25:02;6.10;;;5.50;;
11334;SDS011;5722;42.620;23.374;2023-05-14T06:27:29;11.53;;;7.60;;
11334;SDS011;5722;42.620;23.374;2023-05-14T06:29:58;11.73;;;7.73;;
11334;SDS011;5722;42.620;23.374;2023-05-14T06:32:26;7.70;;;6.57;;
11334;SDS011;5722;42.620;23.374;2023-05-14T06:34:53;7.80;;;6.80;;
11334;SDS011;5722;42.620;23.374;2023-05-14T06:37:24;8.43;;;7.53;;
11334;SDS011;5722;42.620;23.374;2023-05-14T06:40:12;10.00;;;7.67;;
11334;SDS011;5722;42.620;23.374;2023-05-14T06:42:40;7.53;;;6.70;;
11334;SDS011;5722;42.620;23.374;2023-05-14T06:45:13;8.00;;;6.00;;
11334;SDS011;5722;42.620;23.374;2023-05-14T06:47:48;10.17;;;7.37;;
11334;SDS011;5722;42.620;23.374;2023-05-14T06:50:18;10.60;;;7.93;;
11334;SDS011;5722;42.620;23.374;2023-05-14T06:52:55;12.50;;;8.80;;
11334;SDS011;5722;42.620;23.374;2023-05-14T06:55:24;8.77;;;6.07;;
11334;SDS011;5722;42.620;23.374;2023-05-14T06:57:54;7.97;;;6.03;;
11334;SDS011;5722;42.620;23.374;2023-05-14T07:00:21;12.50;;;6.23;;
11334;SDS011;5722;42.620;23.374;2023-05-14T07:02:55;7.63;;;6.33;;
11334;SDS011;5722;42.620;23.374;2023-05-14T07:05:37;6.17;;;5.50;;
11334;SDS011;5722;42.620;23.374;2023-05-14T07:08:09;8.07;;;5.63;;
11334;SDS011;5722;42.620;23.374;2023-05-14T07:10:38;7.37;;;5.10;;
11334;SDS011;5722;42.620;23.374;2023-05-14T07:13:15;5.87;;;4.97;;
11334;SDS011;5722;42.620;23.374;2023-05-14T07:15:43;5.53;;;4.93;;
11334;SDS011;5722;42.620;23.374;2023-05-14T07:18:14;8.77;;;4.63;;
11334;SDS011;5722;42.620;23.374;2023-05-14T07:20:46;5.30;;;4.53;;
11334;SDS011;5722;42.620;23.374;2023-05-14T07:23:14;7.60;;;5.80;;
11334;SDS011;5722;42.620;23.374;2023-05-14T07:28:27;8.77;;;5.80;;
11334;SDS011;5722;42.620;23.374;2023-05-14T07:31:30;7.43;;;6.03;;
11334;SDS011;5722;42.620;23.374;2023-05-14T07:34:10;8.10;;;5.80;;
11334;SDS011;5722;42.620;23.374;2023-05-14T07:36:38;8.67;;;6.70;;
11334;SDS011;5722;42.620;23.374;2023-05-14T07:39:10;8.10;;;5.80;;
11334;SDS011;5722;42.620;23.374;2023-05-14T07:41:58;6.50;;;5.77;;
11334;SDS011;5722;42.620;23.374;2023-05-14T07:44:40;8.67;;;5.93;;
11334;SDS011;5722;42.620;23.374;2023-05-14T07:47:32;6.23;;;5.60;;
11334;SDS011;5722;42.620;23.374;2023-05-14T07:49:59;8.10;;;5.77;;
11334;SDS011;5722;42.620;23.374;2023-05-14T07:52:28;9.10;;;6.50;;
11334;SDS011;5722;42.620;23.374;2023-05-14T07:54:55;9.37;;;6.53;;
11334;SDS011;5722;42.620;23.374;2023-05-14T07:57:24;7.47;;;6.27;;
11334;SDS011;5722;42.620;23.374;2023-05-14T07:59:59;6.23;;;5.40;;
11334;SDS011;5722;42.620;23.374;2023-05-14T08:05:31;7.47;;;6.03;;
11334;SDS011;5722;42.620;23.374;2023-05-14T08:08:03;8.03;;;5.70;;
11334;SDS011;5722;42.620;23.374;2023-05-14T08:10:34;7.07;;;5.90;;
11334;SDS011;5722;42.620;23.374;2023-05-14T08:13:07;11.83;;;5.77;;
11334;SDS011;5722;42.620;23.374;2023-05-14T08:15:34;8.90;;;6.47;;
11334;SDS011;5722;42.620;23.374;2023-05-14T08:18:05;9.00;;;5.87;;
11334;SDS011;5722;42.620;23.374;2023-05-14T08:20:35;7.37;;;5.90;;
11334;SDS011;5722;42.620;23.374;2023-05-14T08:23:10;6.73;;;5.50;;
11334;SDS011;5722;42.620;23.374;2023-05-14T08:25:39;9.10;;;5.33;;
11334;SDS011;5722;42.620;23.374;2023-05-14T08:28:07;6.37;;;5.50;;
11334;SDS011;5722;42.620;23.374;2023-05-14T08:30:38;7.03;;;6.07;;
11334;SDS011;5722;42.620;23.374;2023-05-14T08:33:06;5.97;;;5.37;;
11334;SDS011;5722;42.620;23.374;2023-05-14T08:35:39;6.60;;;5.57;;
11334;SDS011;5722;42.620;23.374;2023-05-14T08:38:06;5.90;;;5.30;;
11334;SDS011;5722;42.620;23.374;2023-05-14T08:40:34;5.30;;;4.80;;
11334;SDS011;5722;42.620;23.374;2023-05-14T08:43:05;5.70;;;5.00;;
11334;SDS011;5722;42.620;23.374;2023-05-14T08:45:37;6.50;;;5.90;;
11334;SDS011;5722;42.620;23.374;2023-05-14T08:48:10;7.33;;;5.43;;
11334;SDS011;5722;42.620;23.374;2023-05-14T08:50:42;5.60;;;5.10;;
11334;SDS011;5722;42.620;23.374;2023-05-14T08:53:10;5.27;;;4.63;;
11334;SDS011;5722;42.620;23.374;2023-05-14T08:55:48;5.67;;;5.17;;
11334;SDS011;5722;42.620;23.374;2023-05-14T08:58:18;5.70;;;4.70;;
11334;SDS011;5722;42.620;23.374;2023-05-14T09:00:49;5.77;;;4.80;;
11334;SDS011;5722;42.620;23.374;2023-05-14T09:03:20;5.50;;;5.00;;
11334;SDS011;5722;42.620;23.374;2023-05-14T09:05:56;5.03;;;4.53;;
11334;SDS011;5722;42.620;23.374;2023-05-14T09:08:24;5.40;;;4.90;;
11334;SDS011;5722;42.620;23.374;2023-05-14T09:10:54;5.83;;;5.10;;
11334;SDS011;5722;42.620;23.374;2023-05-14T09:13:24;4.93;;;4.43;;
11334;SDS011;5722;42.620;23.374;2023-05-14T09:15:55;7.53;;;5.47;;
11334;SDS011;5722;42.620;23.374;2023-05-14T09:18:26;5.87;;;4.90;;
11334;SDS011;5722;42.620;23.374;2023-05-14T09:21:11;5.63;;;4.60;;
11334;SDS011;5722;42.620;23.374;2023-05-14T09:23:42;5.00;;;4.57;;
11334;SDS011;5722;42.620;23.374;2023-05-14T09:26:15;4.60;;;4.20;;
11334;SDS011;5722;42.620;23.374;2023-05-14T09:28:47;4.87;;;4.43;;
11334;SDS011;5722;42.620;23.374;2023-05-14T09:31:18;6.70;;;5.97;;
11334;SDS011;5722;42.620;23.374;2023-05-14T09:33:49;7.37;;;5.70;;
11334;SDS011;5722;42.620;23.374;2023-05-14T09:36:19;7.90;;;5.50;;
11334;SDS011;5722;42.620;23.374;2023-05-14T09:38:46;5.47;;;5.00;;
11334;SDS011;5722;42.620;23.374;2023-05-14T09:41:21;5.70;;;5.20;;
11334;SDS011;5722;42.620;23.374;2023-05-14T09:43:54;5.80;;;5.20;;
11334;SDS011;5722;42.620;23.374;2023-05-14T09:46:25;6.10;;;5.50;;
11334;SDS011;5722;42.620;23.374;2023-05-14T09:48:54;6.40;;;5.80;;
11334;SDS011;5722;42.620;23.374;2023-05-14T09:51:28;6.33;;;5.73;;
11334;SDS011;5722;42.620;23.374;2023-05-14T09:54:08;6.23;;;5.63;;
11334;SDS011;5722;42.620;23.374;2023-05-14T09:56:36;6.20;;;5.63;;
11334;SDS011;5722;42.620;23.374;2023-05-14T09:59:09;5.67;;;5.00;;
11334;SDS011;5722;42.620;23.374;2023-05-14T10:01:39;7.10;;;5.27;;
11334;SDS011;5722;42.620;23.374;2023-05-14T10:04:11;5.50;;;5.00;;
11334;SDS011;5722;42.620;23.374;2023-05-14T10:20:46;4.60;;;4.20;;
11334;SDS011;5722;42.620;23.374;2023-05-14T10:23:24;4.40;;;4.00;;
11334;SDS011;5722;42.620;23.374;2023-05-14T10:26:27;4.30;;;4.00;;
11334;SDS011;5722;42.620;23.374;2023-05-14T10:29:05;4.87;;;4.47;;
11334;SDS011;5722;42.620;23.374;2023-05-14T10:31:47;6.17;;;5.27;;
11334;SDS011;5722;42.620;23.374;2023-05-14T10:34:48;6.60;;;5.93;;
11334;SDS011;5722;42.620;23.374;2023-05-14T10:40:09;7.47;;;4.70;;
11334;SDS011;5722;42.620;23.374;2023-05-14T10:42:37;4.93;;;4.43;;
11334;SDS011;5722;42.620;23.374;2023-05-14T10:45:14;5.10;;;4.67;;
11334;SDS011;5722;42.620;23.374;2023-05-14T10:47:43;5.17;;;4.77;;
11334;SDS011;5722;42.620;23.374;2023-05-14T10:50:16;5.77;;;5.17;;
11334;SDS011;5722;42.620;23.374;2023-05-14T10:52:48;6.03;;;4.57;;
11334;SDS011;5722;42.620;23.374;2023-05-14T10:55:35;5.20;;;4.70;;
11334;SDS011;5722;42.620;23.374;2023-05-14T10:58:12;7.17;;;5.63;;
11334;SDS011;5722;42.620;23.374;2023-05-14T11:00:40;4.90;;;4.50;;
11334;SDS011;5722;42.620;23.374;2023-05-14T11:03:12;5.73;;;5.23;;
11334;SDS011;5722;42.620;23.374;2023-05-14T11:05:41;5.83;;;5.27;;
11334;SDS011;5722;42.620;23.374;2023-05-14T11:08:13;5.40;;;4.90;;
11334;SDS011;5722;42.620;23.374;2023-05-14T11:13:50;7.17;;;4.57;;
11334;SDS011;5722;42.620;23.374;2023-05-14T11:16:21;5.43;;;4.93;;
11334;SDS011;5722;42.620;23.374;2023-05-14T11:19:02;5.00;;;4.60;;
11334;SDS011;5722;42.620;23.374;2023-05-14T11:21:36;4.87;;;4.47;;
11334;SDS011;5722;42.620;23.374;2023-05-14T11:24:07;5.33;;;4.93;;
11334;SDS011;5722;42.620;23.374;2023-05-14T11:26:48;5.60;;;5.13;;
11334;SDS011;5722;42.620;23.374;2023-05-14T11:29:23;4.90;;;4.50;;
11334;SDS011;5722;42.620;23.374;2023-05-14T11:31:59;5.07;;;4.67;;
11334;SDS011;5722;42.620;23.374;2023-05-14T11:34:38;5.30;;;4.90;;
11334;SDS011;5722;42.620;23.374;2023-05-14T11:37:06;5.00;;;4.60;;
11334;SDS011;5722;42.620;23.374;2023-05-14T11:39:35;5.67;;;5.07;;
11334;SDS011;5722;42.620;23.374;2023-05-14T11:42:15;4.97;;;4.57;;
11334;SDS011;5722;42.620;23.374;2023-05-14T11:56:13;6.17;;;4.57;;
11334;SDS011;5722;42.620;23.374;2023-05-14T11:58:53;5.00;;;4.60;;
11334;SDS011;5722;42.620;23.374;2023-05-14T12:01:53;4.80;;;4.40;;
11334;SDS011;5722;42.620;23.374;2023-05-14T12:04:39;5.00;;;4.57;;
11334;SDS011;5722;42.620;23.374;2023-05-14T12:07:23;4.57;;;4.17;;
11334;SDS011;5722;42.620;23.374;2023-05-14T12:10:02;5.00;;;4.60;;
11334;SDS011;5722;42.620;23.374;2023-05-14T12:12:38;4.97;;;4.57;;
11334;SDS011;5722;42.620;23.374;2023-05-14T12:15:11;4.77;;;4.37;;
11334;SDS011;5722;42.620;23.374;2023-05-14T12:17:52;4.60;;;4.20;;
11334;SDS011;5722;42.620;23.374;2023-05-14T12:20:22;5.93;;;4.10;;
11334;SDS011;5722;42.620;23.374;2023-05-14T12:22:57;4.93;;;4.50;;
11334;SDS011;5722;42.620;23.374;2023-05-14T12:25:31;6.77;;;4.60;;
11334;SDS011;5722;42.620;23.374;2023-05-14T12:31:04;5.87;;;5.37;;
11334;SDS011;5722;42.620;23.374;2023-05-14T12:33:39;6.07;;;4.93;;
11334;SDS011;5722;42.620;23.374;2023-05-14T12:36:21;5.33;;;4.93;;
11334;SDS011;5722;42.620;23.374;2023-05-14T12:38:56;5.33;;;4.90;;
11334;SDS011;5722;42.620;23.374;2023-05-14T12:41:35;6.33;;;5.60;;
11334;SDS011;5722;42.620;23.374;2023-05-14T12:44:06;5.20;;;4.80;;
11334;SDS011;5722;42.620;23.374;2023-05-14T12:49:29;7.03;;;6.43;;
11334;SDS011;5722;42.620;23.374;2023-05-14T12:52:02;7.07;;;6.00;;
11334;SDS011;5722;42.620;23.374;2023-05-14T12:54:34;5.90;;;5.40;;
11334;SDS011;5722;42.620;23.374;2023-05-14T12:57:15;6.37;;;5.80;;
11334;SDS011;5722;42.620;23.374;2023-05-14T12:59:47;7.00;;;6.40;;
11334;SDS011;5722;42.620;23.374;2023-05-14T13:02:15;7.47;;;6.80;;
11334;SDS011;5722;42.620;23.374;2023-05-14T13:07:38;9.63;;;7.77;;
11334;SDS011;5722;42.620;23.374;2023-05-14T13:10:26;7.47;;;6.77;;
11334;SDS011;5722;42.620;23.374;2023-05-14T13:12:56;7.70;;;7.10;;
11334;SDS011;5722;42.620;23.374;2023-05-14T13:15:28;8.03;;;7.23;;
11334;SDS011;5722;42.620;23.374;2023-05-14T13:17:58;9.00;;;8.10;;
11334;SDS011;5722;42.620;23.374;2023-05-14T13:20:26;9.03;;;8.23;;
11334;SDS011;5722;42.620;23.374;2023-05-14T13:23:02;9.37;;;8.33;;
11334;SDS011;5722;42.620;23.374;2023-05-14T13:25:33;9.07;;;8.27;;
11334;SDS011;5722;42.620;23.374;2023-05-14T13:28:02;9.97;;;8.97;;
11334;SDS011;5722;42.620;23.374;2023-05-14T13:30:30;9.43;;;8.53;;
11334;SDS011;5722;42.620;23.374;2023-05-14T13:33:08;10.73;;;9.30;;
11334;SDS011;5722;42.620;23.374;2023-05-14T13:35:37;11.07;;;9.97;;
11334;SDS011;5722;42.620;23.374;2023-05-14T13:38:08;10.40;;;9.40;;
11334;SDS011;5722;42.620;23.374;2023-05-14T13:40:35;10.90;;;9.80;;
11334;SDS011;5722;42.620;23.374;2023-05-14T13:43:06;10.03;;;9.03;;
11334;SDS011;5722;42.620;23.374;2023-05-14T13:45:42;9.50;;;8.60;;
11334;SDS011;5722;42.620;23.374;2023-05-14T13:48:11;10.77;;;9.73;;
11334;SDS011;5722;42.620;23.374;2023-05-14T13:50:45;10.50;;;9.60;;
11334;SDS011;5722;42.620;23.374;2023-05-14T13:53:18;12.03;;;10.80;;
11334;SDS011;5722;42.620;23.374;2023-05-14T13:55:53;12.63;;;10.50;;
11334;SDS011;5722;42.620;23.374;2023-05-14T13:58:28;12.33;;;11.13;;
11334;SDS011;5722;42.620;23.374;2023-05-14T14:01:10;11.87;;;10.70;;
11334;SDS011;5722;42.620;23.374;2023-05-14T14:03:51;18.53;;;13.67;;
11334;SDS011;5722;42.620;23.374;2023-05-14T14:06:36;14.90;;;12.97;;
11334;SDS011;5722;42.620;23.374;2023-05-14T14:17:50;12.20;;;10.97;;
11334;SDS011;5722;42.620;23.374;2023-05-14T14:20:23;11.90;;;10.80;;
11334;SDS011;5722;42.620;23.374;2023-05-14T14:22:54;13.17;;;11.80;;
11334;SDS011;5722;42.620;23.374;2023-05-14T14:25:21;11.13;;;10.13;;
11334;SDS011;5722;42.620;23.374;2023-05-14T14:27:59;11.43;;;10.43;;
11334;SDS011;5722;42.620;23.374;2023-05-14T14:30:31;10.47;;;9.50;;
11334;SDS011;5722;42.620;23.374;2023-05-14T14:33:07;9.50;;;8.70;;
11334;SDS011;5722;42.620;23.374;2023-05-14T14:35:45;9.90;;;9.00;;
11334;SDS011;5722;42.620;23.374;2023-05-14T14:38:18;9.97;;;9.17;;
11334;SDS011;5722;42.620;23.374;2023-05-14T14:41:02;11.60;;;10.50;;
11334;SDS011;5722;42.620;23.374;2023-05-14T14:43:40;11.57;;;10.37;;
11334;SDS011;5722;42.620;23.374;2023-05-14T14:46:07;11.13;;;10.13;;
11334;SDS011;5722;42.620;23.374;2023-05-14T14:48:37;11.43;;;10.43;;
11334;SDS011;5722;42.620;23.374;2023-05-14T14:51:06;10.50;;;9.60;;
11334;SDS011;5722;42.620;23.374;2023-05-14T14:53:36;11.47;;;10.37;;
11334;SDS011;5722;42.620;23.374;2023-05-14T14:56:06;12.60;;;10.97;;
11334;SDS011;5722;42.620;23.374;2023-05-14T14:58:35;12.40;;;11.30;;
11334;SDS011;5722;42.620;23.374;2023-05-14T15:01:06;11.27;;;10.17;;
11334;SDS011;5722;42.620;23.374;2023-05-14T15:03:35;11.50;;;9.90;;
11334;SDS011;5722;42.620;23.374;2023-05-14T15:06:10;12.37;;;11.07;;
11334;SDS011;5722;42.620;23.374;2023-05-14T15:08:41;13.63;;;12.43;;
11334;SDS011;5722;42.620;23.374;2023-05-14T15:11:15;11.87;;;10.70;;
11334;SDS011;5722;42.620;23.374;2023-05-14T15:13:49;12.93;;;10.50;;
11334;SDS011;5722;42.620;23.374;2023-05-14T15:16:20;9.47;;;8.57;;
11334;SDS011;5722;42.620;23.374;2023-05-14T15:19:03;9.90;;;8.90;;
11334;SDS011;5722;42.620;23.374;2023-05-14T15:27:01;11.40;;;10.40;;
11334;SDS011;5722;42.620;23.374;2023-05-14T15:29:28;10.27;;;9.27;;
11334;SDS011;5722;42.620;23.374;2023-05-14T15:31:57;10.90;;;9.90;;
11334;SDS011;5722;42.620;23.374;2023-05-14T15:34:35;11.53;;;9.73;;
11334;SDS011;5722;42.620;23.374;2023-05-14T15:37:02;11.57;;;10.40;;
11334;SDS011;5722;42.620;23.374;2023-05-14T15:39:33;12.10;;;10.90;;
11334;SDS011;5722;42.620;23.374;2023-05-14T15:42:03;12.37;;;11.20;;
11334;SDS011;5722;42.620;23.374;2023-05-14T15:44:31;13.97;;;12.43;;
11334;SDS011;5722;42.620;23.374;2023-05-14T15:47:03;14.40;;;12.93;;
11334;SDS011;5722;42.620;23.374;2023-05-14T15:49:30;12.77;;;11.47;;
11334;SDS011;5722;42.620;23.374;2023-05-14T15:52:00;17.10;;;15.40;;
11334;SDS011;5722;42.620;23.374;2023-05-14T15:54:31;13.43;;;12.03;;
11334;SDS011;5722;42.620;23.374;2023-05-14T15:57:04;12.17;;;11.00;;
11334;SDS011;5722;42.620;23.374;2023-05-14T15:59:32;8.10;;;7.40;;
11334;SDS011;5722;42.620;23.374;2023-05-14T16:02:02;10.23;;;9.23;;
11334;SDS011;5722;42.620;23.374;2023-05-14T16:04:42;13.33;;;10.90;;
11334;SDS011;5722;42.620;23.374;2023-05-14T16:07:27;9.40;;;8.50;;
11334;SDS011;5722;42.620;23.374;2023-05-14T16:09:58;8.13;;;7.43;;
11334;SDS011;5722;42.620;23.374;2023-05-14T16:12:33;7.60;;;6.80;;
11334;SDS011;5722;42.620;23.374;2023-05-14T16:15:03;5.90;;;5.30;;
11334;SDS011;5722;42.620;23.374;2023-05-14T16:17:34;6.80;;;5.80;;
11334;SDS011;5722;42.620;23.374;2023-05-14T16:20:03;6.37;;;5.20;;
11334;SDS011;5722;42.620;23.374;2023-05-14T16:22:34;5.40;;;4.93;;